createdAt,value
2023-05-14T00:00:40.254Z,2.55
2023-05-14T00:03:34.940Z,2.88
2023-05-14T00:06:29.496Z,1.17
2023-05-14T00:09:23.893Z,0.90
2023-05-14T00:12:18.056Z,2.03
2023-05-14T00:15:12.490Z,1.92
2023-05-14T00:18:08.505Z,1.60
2023-05-14T00:21:03.070Z,3.17
2023-05-14T00:23:57.746Z,1.88
2023-05-14T00:26:52.049Z,1.45
2023-05-14T00:29:47.138Z,1.40
2023-05-14T00:32:41.588Z,1.52
2023-05-14T00:35:37.369Z,3.05
2023-05-14T00:38:31.841Z,1.70
2023-05-14T00:41:26.560Z,1.88
2023-05-14T00:44:21.257Z,2.40
2023-05-14T00:47:16.009Z,2.40
2023-05-14T00:50:11.589Z,1.58
2023-05-14T00:53:11.353Z,2.35
2023-05-14T00:56:06.548Z,2.83
2023-05-14T00:59:00.969Z,2.88
2023-05-14T01:01:56.204Z,2.47
2023-05-14T01:04:51.140Z,1.38
2023-05-14T01:08:03.828Z,1.98
2023-05-14T01:11:09.476Z,1.83
2023-05-14T01:14:38.255Z,3.47
2023-05-14T01:20:31.490Z,1.77
2023-05-14T01:26:20.286Z,1.45
2023-05-14T01:29:24.414Z,1.33
2023-05-14T01:32:21.868Z,2.05
2023-05-14T01:35:17.343Z,2.08
2023-05-14T01:38:13.705Z,2.08
2023-05-14T01:41:08.326Z,2.70
2023-05-14T01:44:02.771Z,2.30
2023-05-14T01:46:57.189Z,1.13
2023-05-14T01:49:51.688Z,1.52
2023-05-14T01:52:46.272Z,1.52
2023-05-14T01:55:40.543Z,1.25
2023-05-14T01:58:34.850Z,2.72
2023-05-14T02:01:29.421Z,0.80
2023-05-14T02:04:23.715Z,1.15
2023-05-14T02:07:18.145Z,5.30
2023-05-14T02:10:12.732Z,2.38
2023-05-14T02:13:07.085Z,1.70
2023-05-14T02:16:01.553Z,5.15
2023-05-14T02:18:55.897Z,3.38
2023-05-14T02:21:50.868Z,1.45
2023-05-14T02:24:45.886Z,1.50
2023-05-14T02:27:40.438Z,1.63
2023-05-14T02:30:34.688Z,1.05
2023-05-14T02:33:29.408Z,1.35
2023-05-14T02:36:23.857Z,2.80
2023-05-14T02:39:18.061Z,2.53
2023-05-14T02:42:12.344Z,1.95
2023-05-14T02:45:07.041Z,2.78
2023-05-14T02:48:01.313Z,0.82
2023-05-14T02:50:55.670Z,2.40
2023-05-14T02:53:50.275Z,1.92
2023-05-14T02:56:44.642Z,0.80
2023-05-14T02:59:38.850Z,1.88
2023-05-14T03:02:33.719Z,2.88
2023-05-14T03:05:28.380Z,1.52
2023-05-14T03:08:22.568Z,3.00
2023-05-14T03:11:16.787Z,1.58
2023-05-14T03:14:10.994Z,2.15
2023-05-14T03:17:05.402Z,1.25
2023-05-14T03:19:59.861Z,1.48
2023-05-14T03:22:54.469Z,2.45
2023-05-14T03:25:48.691Z,1.52
2023-05-14T03:28:43.099Z,1.20
2023-05-14T03:31:37.332Z,2.08
2023-05-14T03:34:31.666Z,1.17
2023-05-14T03:37:25.887Z,2.40
2023-05-14T03:40:20.628Z,1.25
2023-05-14T03:43:15.072Z,2.85
2023-05-14T03:46:09.376Z,3.47
2023-05-14T03:49:05.068Z,0.90
2023-05-14T03:52:00.621Z,0.85
2023-05-14T03:54:54.837Z,1.05
2023-05-14T03:57:50.536Z,2.00
2023-05-14T04:00:45.177Z,1.30
2023-05-14T04:03:39.753Z,1.67
2023-05-14T04:06:34.683Z,1.30
2023-05-14T04:09:28.861Z,2.00
2023-05-14T04:12:23.075Z,2.05
2023-05-14T04:15:17.439Z,1.83
2023-05-14T04:18:11.770Z,2.13
2023-05-14T04:21:06.493Z,1.23
2023-05-14T04:24:00.818Z,0.98
2023-05-14T04:26:55.091Z,2.88
2023-05-14T04:29:52.561Z,1.50
2023-05-14T04:32:47.224Z,4.80
2023-05-14T04:35:41.542Z,1.30
2023-05-14T04:38:36.300Z,1.20
2023-05-14T04:41:30.640Z,1.17
2023-05-14T04:44:24.977Z,1.73
2023-05-14T04:47:20.106Z,1.13
2023-05-14T04:50:14.574Z,2.00
2023-05-14T04:53:09.149Z,3.13
2023-05-14T04:56:03.568Z,1.23
2023-05-14T04:58:58.163Z,1.30
2023-05-14T05:01:53.069Z,1.42
2023-05-14T05:04:48.455Z,1.50
2023-05-14T05:07:42.820Z,1.33
2023-05-14T05:10:37.261Z,1.60
2023-05-14T05:13:31.643Z,1.73
2023-05-14T05:16:26.034Z,3.55
2023-05-14T05:19:26.563Z,2.20
2023-05-14T05:22:27.068Z,2.15
2023-05-14T05:25:21.537Z,0.93
2023-05-14T05:28:16.115Z,1.33
2023-05-14T05:31:10.736Z,2.30
2023-05-14T05:34:05.523Z,0.98
2023-05-14T05:37:00.015Z,1.42
2023-05-14T05:39:55.232Z,1.20
2023-05-14T05:42:49.581Z,1.73
2023-05-14T05:45:44.066Z,8.68
2023-05-14T05:48:38.325Z,1.08
2023-05-14T05:51:33.087Z,3.13
2023-05-14T05:54:28.453Z,1.33
2023-05-14T05:57:25.694Z,1.63
2023-05-14T06:00:22.144Z,1.40
2023-05-14T06:03:17.226Z,2.92
2023-05-14T06:06:11.570Z,2.40
2023-05-14T06:09:08.331Z,1.58
2023-05-14T06:12:02.699Z,1.38
2023-05-14T06:14:59.077Z,0.80
2023-05-14T06:17:53.547Z,3.17
2023-05-14T06:20:48.215Z,2.25
2023-05-14T06:23:42.956Z,1.52
2023-05-14T06:26:37.312Z,1.27
2023-05-14T06:29:31.847Z,0.98
2023-05-14T06:32:26.015Z,2.22
2023-05-14T06:35:20.803Z,3.92
2023-05-14T06:38:15.280Z,0.65
2023-05-14T06:41:12.146Z,1.48
2023-05-14T06:44:06.552Z,0.82
2023-05-14T06:47:01.127Z,1.52
2023-05-14T06:49:55.317Z,1.23
2023-05-14T06:52:49.631Z,2.25
2023-05-14T06:55:44.251Z,1.20
2023-05-14T06:58:38.481Z,2.42
2023-05-14T07:01:32.900Z,1.50
2023-05-14T07:04:27.222Z,1.15
2023-05-14T07:07:22.525Z,1.73
2023-05-14T07:10:16.907Z,2.88
2023-05-14T07:13:11.144Z,1.48
2023-05-14T07:16:05.902Z,0.82
2023-05-14T07:19:00.869Z,2.55
2023-05-14T07:21:55.090Z,1.98
2023-05-14T07:24:49.368Z,4.95
2023-05-14T07:27:43.813Z,3.30
2023-05-14T07:30:38.057Z,1.42
2023-05-14T07:33:32.583Z,2.92
2023-05-14T07:36:26.916Z,1.55
2023-05-14T07:39:21.208Z,2.42
2023-05-14T07:42:22.067Z,1.92
2023-05-14T07:45:22.619Z,1.60
2023-05-14T07:48:17.299Z,1.92
2023-05-14T07:51:11.768Z,9.57
2023-05-14T07:54:06.422Z,2.40
2023-05-14T07:57:00.913Z,1.65
2023-05-14T07:59:55.235Z,2.22
2023-05-14T08:02:50.571Z,2.92
2023-05-14T08:05:44.868Z,2.72
2023-05-14T08:08:39.208Z,3.60
2023-05-14T08:11:33.619Z,4.43
2023-05-14T08:14:27.906Z,5.50
2023-05-14T08:17:22.112Z,7.60
2023-05-14T08:20:16.436Z,7.38
2023-05-14T08:23:10.745Z,5.63
2023-05-14T08:26:05.020Z,9.13
2023-05-14T08:28:59.268Z,12.80
2023-05-14T08:31:53.504Z,7.45
2023-05-14T08:34:47.722Z,6.60
2023-05-14T08:37:42.077Z,6.18
2023-05-14T08:40:36.470Z,3.95
2023-05-14T08:43:44.096Z,3.90
2023-05-14T08:46:39.902Z,3.95
2023-05-14T08:49:49.324Z,3.55
2023-05-14T08:52:43.761Z,4.22
2023-05-14T08:55:38.985Z,4.20
2023-05-14T08:58:33.238Z,3.70
2023-05-14T09:01:28.570Z,4.45
2023-05-14T09:04:25.352Z,4.18
2023-05-14T09:07:19.852Z,5.47
2023-05-14T09:10:14.327Z,5.85
2023-05-14T09:13:08.996Z,5.57
2023-05-14T09:16:03.725Z,6.40
2023-05-14T09:18:57.995Z,4.28
2023-05-14T09:21:52.961Z,7.13
2023-05-14T09:24:47.925Z,5.68
2023-05-14T09:27:42.108Z,4.82
2023-05-14T09:30:41.509Z,5.07
2023-05-14T09:33:35.683Z,5.82
2023-05-14T09:36:29.927Z,6.63
2023-05-14T09:39:25.738Z,6.68
2023-05-14T09:42:19.878Z,5.68
2023-05-14T09:45:14.468Z,6.70
2023-05-14T09:48:09.857Z,5.03
2023-05-14T09:51:04.867Z,6.20
2023-05-14T09:53:59.621Z,7.28
2023-05-14T09:56:55.599Z,14.55
2023-05-14T09:59:50.355Z,15.00
2023-05-14T10:02:46.335Z,23.33
2023-05-14T10:05:43.466Z,18.20
2023-05-14T10:08:42.755Z,16.15
2023-05-14T10:11:40.186Z,17.23
2023-05-14T10:14:50.808Z,14.40
2023-05-14T10:17:57.373Z,15.85
2023-05-14T10:21:02.344Z,12.65
2023-05-14T10:23:56.527Z,13.45
2023-05-14T10:26:51.155Z,12.57
2023-05-14T10:29:56.646Z,13.25
2023-05-14T10:32:50.894Z,13.88
2023-05-14T10:35:54.445Z,10.65
2023-05-14T10:38:56.627Z,11.55
2023-05-14T10:41:50.871Z,13.38
2023-05-14T10:44:59.612Z,15.82
2023-05-14T10:47:53.974Z,13.60
2023-05-14T10:50:52.441Z,13.93
2023-05-14T10:53:47.093Z,14.10
2023-05-14T10:56:41.308Z,16.00
2023-05-14T10:59:36.559Z,16.30
2023-05-14T11:02:48.773Z,16.35
2023-05-14T11:05:43.381Z,14.57
2023-05-14T11:08:38.368Z,17.00
2023-05-14T11:11:32.807Z,16.75
2023-05-14T11:14:27.044Z,14.68
2023-05-14T11:17:21.545Z,14.20
2023-05-14T11:20:16.271Z,14.63
2023-05-14T11:23:10.940Z,13.10
2023-05-14T11:26:05.201Z,12.30
2023-05-14T11:28:59.537Z,14.32
2023-05-14T11:31:53.963Z,12.95
2023-05-14T11:34:48.992Z,12.38
2023-05-14T11:37:43.342Z,13.95
2023-05-14T11:40:37.738Z,13.63
2023-05-14T11:43:32.114Z,16.23
2023-05-14T11:46:27.428Z,16.50
2023-05-14T11:49:27.162Z,13.13
2023-05-14T11:52:23.228Z,13.93
2023-05-14T11:55:17.485Z,15.60
2023-05-14T11:58:11.880Z,15.93
2023-05-14T12:01:06.233Z,14.93
2023-05-14T12:04:02.655Z,12.38
2023-05-14T12:06:59.355Z,12.77
2023-05-14T12:09:53.621Z,14.57
2023-05-14T12:12:49.988Z,15.85
2023-05-14T12:15:48.300Z,15.20
2023-05-14T12:18:42.554Z,12.18
2023-05-14T12:21:37.776Z,14.70
2023-05-14T12:24:31.916Z,11.85
2023-05-14T12:27:27.900Z,13.40
2023-05-14T12:30:22.841Z,12.13
2023-05-14T12:33:17.496Z,10.43
2023-05-14T12:36:21.094Z,10.43
2023-05-14T12:39:15.855Z,13.77
2023-05-14T12:42:10.071Z,12.80
2023-05-14T12:45:06.788Z,11.25
2023-05-14T12:48:01.123Z,13.80
2023-05-14T12:50:55.347Z,10.73
2023-05-14T12:53:49.894Z,11.93
2023-05-14T12:56:44.244Z,11.02
2023-05-14T12:59:38.557Z,12.35
2023-05-14T13:02:32.937Z,11.38
2023-05-14T13:05:27.223Z,10.27
2023-05-14T13:08:22.825Z,13.30
2023-05-14T13:11:17.318Z,11.65
2023-05-14T13:14:11.557Z,11.57
2023-05-14T13:17:07.187Z,9.57
2023-05-14T13:20:01.492Z,10.20
2023-05-14T13:22:55.711Z,9.82
2023-05-14T13:25:50.205Z,8.35
2023-05-14T13:28:44.702Z,11.25
2023-05-14T13:31:38.979Z,9.60
2023-05-14T13:34:33.171Z,11.50
2023-05-14T13:37:27.627Z,10.48
2023-05-14T13:40:22.193Z,7.32
2023-05-14T13:43:18.121Z,10.98
2023-05-14T13:46:12.412Z,7.55
2023-05-14T13:49:06.604Z,9.75
2023-05-14T13:52:00.789Z,11.35
2023-05-14T13:54:55.051Z,9.43
2023-05-14T13:57:49.220Z,8.77
2023-05-14T14:00:43.958Z,8.45
2023-05-14T14:03:38.135Z,7.68
2023-05-14T14:06:34.409Z,7.80
2023-05-14T14:09:28.579Z,10.88
2023-05-14T14:12:23.054Z,9.05
2023-05-14T14:15:17.333Z,9.25
2023-05-14T14:18:11.513Z,8.13
2023-05-14T14:21:05.896Z,10.48
2023-05-14T14:24:00.331Z,9.85
2023-05-14T14:26:54.493Z,10.43
2023-05-14T14:29:48.710Z,8.55
2023-05-14T14:32:46.751Z,8.23
2023-05-14T14:35:41.256Z,6.47
2023-05-14T14:38:35.371Z,5.88
2023-05-14T14:41:29.605Z,7.68
2023-05-14T14:44:23.746Z,7.00
2023-05-14T14:47:17.897Z,6.95
2023-05-14T14:50:12.390Z,6.55
2023-05-14T14:53:06.613Z,6.65
2023-05-14T14:56:01.890Z,7.43
2023-05-14T14:58:56.263Z,6.40
2023-05-14T15:01:51.877Z,8.68
2023-05-14T15:04:46.177Z,6.75
2023-05-14T15:07:42.604Z,6.35
2023-05-14T15:10:39.101Z,8.93
2023-05-14T15:13:33.326Z,7.05
2023-05-14T15:16:27.495Z,6.25
2023-05-14T15:19:23.147Z,10.77
2023-05-14T15:22:17.652Z,7.35
2023-05-14T15:25:12.073Z,5.70
2023-05-14T15:28:08.774Z,5.22
2023-05-14T15:31:03.828Z,4.68
2023-05-14T15:33:58.170Z,8.50
2023-05-14T15:36:52.502Z,5.55
2023-05-14T15:39:47.014Z,4.25
2023-05-14T15:42:44.970Z,6.78
2023-05-14T15:45:39.177Z,6.20
2023-05-14T15:48:33.440Z,5.55
2023-05-14T15:51:27.713Z,5.85
2023-05-14T15:54:21.994Z,5.80
2023-05-14T15:57:19.196Z,5.70
2023-05-14T16:00:14.717Z,5.47
2023-05-14T16:03:09.047Z,6.45
2023-05-14T16:06:03.309Z,3.95
2023-05-14T16:08:59.120Z,6.95
2023-05-14T16:11:53.306Z,6.38
2023-05-14T16:14:47.762Z,5.32
2023-05-14T16:17:42.095Z,5.35
2023-05-14T16:20:36.271Z,5.25
2023-05-14T16:23:30.428Z,4.35
2023-05-14T16:26:24.685Z,5.82
2023-05-14T16:29:18.880Z,5.00
2023-05-14T16:32:13.228Z,6.57
2023-05-14T16:35:07.869Z,4.88
2023-05-14T16:38:03.034Z,9.40
2023-05-14T16:40:57.643Z,6.47
2023-05-14T16:43:52.652Z,6.80
2023-05-14T16:46:46.880Z,5.40
2023-05-14T16:49:41.074Z,5.38
2023-05-14T16:52:35.780Z,5.25
2023-05-14T16:55:29.980Z,4.28
2023-05-14T16:58:24.110Z,6.07
2023-05-14T17:01:18.640Z,3.90
2023-05-14T17:04:13.069Z,4.05
2023-05-14T17:07:07.748Z,7.53
2023-05-14T17:10:02.069Z,5.13
2023-05-14T17:12:56.405Z,5.25
2023-05-14T17:15:50.640Z,5.00
2023-05-14T17:18:46.912Z,5.65
2023-05-14T17:21:41.176Z,5.60
2023-05-14T17:24:36.675Z,6.38
2023-05-14T17:27:34.293Z,3.88
2023-05-14T17:30:28.551Z,4.47
2023-05-14T17:33:22.833Z,5.05
2023-05-14T17:36:17.303Z,4.82
2023-05-14T17:39:11.753Z,3.83
2023-05-14T17:42:06.377Z,8.20
2023-05-14T17:45:00.906Z,5.13
2023-05-14T17:47:55.189Z,5.22
2023-05-14T17:50:49.470Z,7.05
2023-05-14T17:53:43.724Z,6.68
2023-05-14T17:56:38.145Z,4.50
2023-05-14T17:59:32.530Z,5.15
2023-05-14T18:02:26.986Z,4.05
2023-05-14T18:05:21.275Z,5.25
2023-05-14T18:08:16.008Z,4.85
2023-05-14T18:11:10.305Z,4.15
2023-05-14T18:14:04.976Z,5.57
2023-05-14T18:17:00.379Z,4.38
2023-05-14T18:19:54.636Z,3.40
2023-05-14T18:22:49.009Z,5.32
2023-05-14T18:25:43.252Z,6.35
2023-05-14T18:28:38.291Z,5.97
2023-05-14T18:31:32.620Z,4.25
2023-05-14T18:34:26.820Z,4.93
2023-05-14T18:37:20.982Z,4.72
2023-05-14T18:40:18.677Z,5.43
2023-05-14T18:43:14.598Z,4.80
2023-05-14T18:46:08.885Z,3.80
2023-05-14T18:49:03.164Z,3.15
2023-05-14T18:51:57.427Z,3.65
2023-05-14T18:54:52.810Z,4.10
2023-05-14T18:57:47.426Z,3.28
2023-05-14T19:00:41.865Z,6.88
2023-05-14T19:03:36.177Z,4.95
2023-05-14T19:06:30.552Z,4.10
2023-05-14T19:09:25.556Z,4.55
2023-05-14T19:12:20.964Z,2.85
2023-05-14T19:15:15.274Z,4.75
2023-05-14T19:18:09.504Z,4.82
2023-05-14T19:21:04.049Z,5.50
2023-05-14T19:23:58.354Z,6.53
2023-05-14T19:26:52.545Z,6.72
2023-05-14T19:29:46.952Z,4.43
2023-05-14T19:32:41.397Z,4.40
2023-05-14T19:35:35.930Z,4.95
2023-05-14T19:38:30.882Z,4.40
2023-05-14T19:41:25.050Z,3.47
2023-05-14T19:44:19.269Z,6.10
2023-05-14T19:47:13.652Z,3.55
2023-05-14T19:50:09.652Z,4.40
2023-05-14T19:53:05.250Z,3.67
2023-05-14T19:56:00.133Z,3.38
2023-05-14T19:58:54.298Z,5.70
2023-05-14T20:01:48.489Z,5.82
2023-05-14T20:04:43.727Z,2.85
2023-05-14T20:07:40.177Z,3.25
2023-05-14T20:10:34.596Z,4.75
2023-05-14T20:13:28.922Z,2.83
2023-05-14T20:16:24.598Z,3.53
2023-05-14T20:19:18.901Z,4.90
2023-05-14T20:22:13.186Z,3.63
2023-05-14T20:25:08.523Z,3.97
2023-05-14T20:28:02.829Z,2.97
2023-05-14T20:30:59.947Z,4.20
2023-05-14T20:33:54.144Z,5.82
2023-05-14T20:36:48.572Z,4.25
2023-05-14T20:39:42.681Z,4.43
2023-05-14T20:42:37.694Z,3.92
2023-05-14T20:45:31.815Z,4.30
2023-05-14T20:48:26.050Z,5.07
2023-05-14T20:51:20.315Z,3.20
2023-05-14T20:54:14.467Z,3.10
2023-05-14T20:57:08.654Z,5.43
2023-05-14T21:00:03.610Z,8.00
2023-05-14T21:02:58.830Z,3.60
2023-05-14T21:05:54.199Z,3.75
2023-05-14T21:08:48.372Z,5.28
2023-05-14T21:11:42.650Z,4.75
2023-05-14T21:14:37.087Z,5.10
2023-05-14T21:17:31.446Z,4.15
2023-05-14T21:20:25.760Z,4.07
2023-05-14T21:23:21.116Z,3.50
2023-05-14T21:26:15.349Z,2.97
2023-05-14T21:29:09.600Z,3.45
2023-05-14T21:32:04.196Z,4.57
2023-05-14T21:34:58.657Z,3.67
2023-05-14T21:37:53.425Z,4.07
2023-05-14T21:40:47.773Z,4.32
2023-05-14T21:43:42.180Z,6.88
2023-05-14T21:46:36.725Z,6.88
2023-05-14T21:49:31.012Z,3.63
2023-05-14T21:52:25.268Z,4.18
2023-05-14T21:55:19.601Z,8.02
2023-05-14T21:58:14.096Z,5.28
2023-05-14T22:01:10.140Z,6.10
2023-05-14T22:04:04.570Z,5.72
2023-05-14T22:06:59.009Z,4.95
2023-05-14T22:09:53.373Z,7.95
2023-05-14T22:12:47.809Z,5.75
2023-05-14T22:15:42.325Z,5.15
2023-05-14T22:18:37.739Z,8.65
2023-05-14T22:21:31.957Z,4.28
2023-05-14T22:24:26.221Z,5.57
2023-05-14T22:27:20.735Z,6.40
2023-05-14T22:30:15.373Z,5.63
2023-05-14T22:33:09.670Z,5.15
2023-05-14T22:36:04.053Z,5.03
2023-05-14T22:38:59.768Z,7.00
2023-05-14T22:41:56.456Z,8.48
2023-05-14T22:44:51.073Z,6.10
2023-05-14T22:47:45.533Z,3.97
2023-05-14T22:50:39.935Z,4.70
2023-05-14T22:53:34.188Z,5.00
2023-05-14T22:56:29.482Z,4.53
2023-05-14T22:59:25.978Z,4.78
2023-05-14T23:02:20.858Z,4.88
2023-05-14T23:05:15.483Z,3.95
2023-05-14T23:08:12.624Z,4.03
2023-05-14T23:11:07.506Z,3.97
2023-05-14T23:14:02.023Z,4.53
2023-05-14T23:16:56.286Z,4.55
2023-05-14T23:19:50.643Z,4.88
2023-05-14T23:22:45.083Z,14.65
2023-05-14T23:25:39.839Z,2.30
2023-05-14T23:28:34.037Z,3.55
2023-05-14T23:31:28.356Z,3.30
2023-05-14T23:34:23.346Z,5.03
2023-05-14T23:37:17.892Z,5.20
2023-05-14T23:40:12.445Z,3.80
2023-05-14T23:43:07.048Z,6.35
2023-05-14T23:46:01.787Z,3.80
2023-05-14T23:48:58.371Z,4.88
2023-05-14T23:51:52.927Z,5.20
2023-05-14T23:54:47.935Z,2.75
2023-05-14T23:57:42.419Z,3.45
